Time;durP1;ratioP1;P1;durP2;ratioP2;P2;SDS_P1;SDS_P2;PMS_P1;PMS_P2;Temp;Humidity;BMP_temperature;BMP_pressure;BME280_temperature;BME280_humidity;BME280_pressure;Samples;Min_cycle;Max_cycle;Signal;HPM_P1;HPM_P2
2023/05/20 00:00:42;;;;;;;1.33;1.25;;;;;;;;;;5077043;28;20193;-82
2023/05/20 00:03:12;;;;;;;1.52;1.42;;;;;;;;;;5076411;28;20295;-82
2023/05/20 00:05:41;;;;;;;1.55;1.40;;;;;;;;;;5076473;28;20288;-82
2023/05/20 00:08:12;;;;;;;1.35;1.25;;;;;;;;;;5076426;28;20225;-83
2023/05/20 00:10:41;;;;;;;1.50;1.40;;;;;;;;;;5076274;28;20209;-83
2023/05/20 00:13:09;;;;;;;0.98;0.98;;;;;;;;;;5076187;28;20208;-82
2023/05/20 00:15:36;;;;;;;1.30;1.20;;;;;;;;;;5076833;28;20291;-82
2023/05/20 00:18:04;;;;;;;1.60;1.50;;;;;;;;;;5075810;28;20308;-82
2023/05/20 00:20:32;;;;;;;1.58;1.48;;;;;;;;;;5075918;28;20737;-82
2023/05/20 00:23:01;;;;;;;1.35;1.25;;;;;;;;;;5076321;28;20208;-82
2023/05/20 00:25:30;;;;;;;1.40;1.30;;;;;;;;;;5075100;28;20284;-82
2023/05/20 00:27:57;;;;;;;1.67;1.58;;;;;;;;;;5074944;28;20225;-82
2023/05/20 00:30:25;;;;;;;1.60;1.50;;;;;;;;;;5075352;28;20643;-81
2023/05/20 00:32:52;;;;;;;1.77;1.60;;;;;;;;;;5075387;28;20729;-82
2023/05/20 00:35:20;;;;;;;2.85;1.35;;;;;;;;;;5075230;28;20288;-82
2023/05/20 00:37:47;;;;;;;1.70;1.60;;;;;;;;;;5075037;28;20327;-82
2023/05/20 00:40:16;;;;;;;1.45;1.35;;;;;;;;;;5074910;28;20292;-82
2023/05/20 00:42:44;;;;;;;1.30;1.20;;;;;;;;;;5075165;28;20741;-82
2023/05/20 00:45:12;;;;;;;1.50;1.40;;;;;;;;;;5074674;28;20274;-82
2023/05/20 00:47:39;;;;;;;2.15;1.98;;;;;;;;;;5074848;28;20303;-83
2023/05/20 00:50:09;;;;;;;1.20;1.20;;;;;;;;;;5075364;28;20231;-83
2023/05/20 00:52:37;;;;;;;1.20;1.20;;;;;;;;;;5075046;28;20245;-82
2023/05/20 00:55:05;;;;;;;1.50;1.40;;;;;;;;;;5075127;28;20287;-82
2023/05/20 00:57:34;;;;;;;1.40;1.30;;;;;;;;;;5075657;28;20311;-82
2023/05/20 01:00:01;;;;;;;1.88;1.77;;;;;;;;;;5075623;28;20288;-82
2023/05/20 01:02:29;;;;;;;1.88;1.73;;;;;;;;;;5075272;28;20205;-82
2023/05/20 01:04:57;;;;;;;2.67;1.52;;;;;;;;;;5075487;28;20251;-82
2023/05/20 01:07:25;;;;;;;1.60;1.45;;;;;;;;;;5074889;28;20225;-82
2023/05/20 01:09:54;;;;;;;1.98;1.50;;;;;;;;;;5075058;28;20231;-82
2023/05/20 01:12:26;;;;;;;1.73;1.63;;;;;;;;;;5074454;28;20213;-83
2023/05/20 01:15:02;;;;;;;2.17;1.90;;;;;;;;;;5075670;28;20240;-83
2023/05/20 01:17:36;;;;;;;1.60;1.50;;;;;;;;;;5074773;28;20220;-82
2023/05/20 01:20:08;;;;;;;1.48;1.40;;;;;;;;;;5074608;28;20245;-82
2023/05/20 01:22:38;;;;;;;1.48;1.40;;;;;;;;;;5075267;28;20215;-82
2023/05/20 01:25:06;;;;;;;1.45;1.35;;;;;;;;;;5074932;28;20201;-83
2023/05/20 01:27:34;;;;;;;2.03;1.50;;;;;;;;;;5074388;28;20274;-82
2023/05/20 01:30:02;;;;;;;1.60;1.50;;;;;;;;;;5073878;28;20228;-82
2023/05/20 01:32:35;;;;;;;3.35;1.65;;;;;;;;;;5074554;28;20621;-82
2023/05/20 01:35:03;;;;;;;2.42;1.85;;;;;;;;;;5074652;28;20201;-82
2023/05/20 01:37:32;;;;;;;2.22;1.92;;;;;;;;;;5073736;28;20217;-82
2023/05/20 01:40:01;;;;;;;2.03;1.83;;;;;;;;;;5073977;28;20201;-82
2023/05/20 01:42:29;;;;;;;1.80;1.70;;;;;;;;;;5073499;28;20255;-81
2023/05/20 01:44:56;;;;;;;1.50;1.40;;;;;;;;;;5073652;28;20680;-82
2023/05/20 01:47:24;;;;;;;1.40;1.30;;;;;;;;;;5073924;28;20363;-83
2023/05/20 01:49:52;;;;;;;1.73;1.63;;;;;;;;;;5074456;28;20229;-82
2023/05/20 01:52:20;;;;;;;1.30;1.27;;;;;;;;;;5074100;28;20201;-81
2023/05/20 01:54:50;;;;;;;2.05;1.40;;;;;;;;;;5074080;28;20247;-83
2023/05/20 01:57:19;;;;;;;1.50;1.40;;;;;;;;;;5074415;28;20627;-82
2023/05/20 01:59:47;;;;;;;1.80;1.70;;;;;;;;;;5074106;28;20743;-83
2023/05/20 02:02:14;;;;;;;1.70;1.60;;;;;;;;;;5073549;28;20274;-83
2023/05/20 02:04:46;;;;;;;2.60;1.70;;;;;;;;;;5073902;28;20201;-83
2023/05/20 02:07:14;;;;;;;1.55;1.45;;;;;;;;;;5074074;28;20312;-82
2023/05/20 02:09:41;;;;;;;1.98;1.85;;;;;;;;;;5073936;28;20605;-83
2023/05/20 02:12:15;;;;;;;3.13;1.80;;;;;;;;;;5073785;28;20291;-82
2023/05/20 02:14:44;;;;;;;1.50;1.40;;;;;;;;;;5073628;28;20379;-82
2023/05/20 02:17:11;;;;;;;1.40;1.30;;;;;;;;;;5073370;28;20235;-82
2023/05/20 02:19:39;;;;;;;1.58;1.48;;;;;;;;;;5073461;28;20270;-82
2023/05/20 02:22:07;;;;;;;1.50;1.40;;;;;;;;;;5073505;28;20284;-82
2023/05/20 02:24:34;;;;;;;1.75;1.65;;;;;;;;;;5073603;28;20292;-82
2023/05/20 02:27:03;;;;;;;1.40;1.30;;;;;;;;;;5081713;22;20636;-82
2023/05/20 02:29:30;;;;;;;1.45;1.35;;;;;;;;;;5052314;28;20225;-82
2023/05/20 02:31:59;;;;;;;1.10;1.10;;;;;;;;;;5054202;28;20208;-82
2023/05/20 02:34:29;;;;;;;1.40;1.30;;;;;;;;;;5056993;28;20198;-81
2023/05/20 02:36:56;;;;;;;1.55;1.45;;;;;;;;;;5057855;28;20202;-82
2023/05/20 02:39:23;;;;;;;1.60;1.50;;;;;;;;;;5055598;28;20693;-82
2023/05/20 02:41:51;;;;;;;1.98;1.77;;;;;;;;;;5056925;28;20289;-83
2023/05/20 02:44:18;;;;;;;1.80;1.70;;;;;;;;;;5056013;28;20202;-80
2023/05/20 02:46:46;;;;;;;1.80;1.70;;;;;;;;;;5056598;28;20284;-84
2023/05/20 02:49:14;;;;;;;1.73;1.63;;;;;;;;;;5055984;28;20228;-81
2023/05/20 02:51:42;;;;;;;1.85;1.75;;;;;;;;;;5055905;28;20312;-83
2023/05/20 02:54:09;;;;;;;1.85;1.75;;;;;;;;;;5056192;28;20399;-81
2023/05/20 02:56:37;;;;;;;1.90;1.80;;;;;;;;;;5056956;28;20645;-83
2023/05/20 02:59:06;;;;;;;1.80;1.70;;;;;;;;;;5056554;28;20309;-82
2023/05/20 03:01:34;;;;;;;1.50;1.40;;;;;;;;;;5057557;28;20673;-82
2023/05/20 03:04:02;;;;;;;1.20;1.20;;;;;;;;;;5059263;28;20205;-83
2023/05/20 03:06:31;;;;;;;1.75;1.65;;;;;;;;;;5061015;28;20588;-83
2023/05/20 03:08:59;;;;;;;1.60;1.50;;;;;;;;;;5059781;28;20308;-82
2023/05/20 03:11:26;;;;;;;2.10;1.90;;;;;;;;;;5059734;28;20217;-81
2023/05/20 03:13:54;;;;;;;1.75;1.65;;;;;;;;;;5059505;28;20293;-81
2023/05/20 03:16:21;;;;;;;1.83;1.73;;;;;;;;;;5059710;28;20692;-83
2023/05/20 03:18:49;;;;;;;2.38;1.77;;;;;;;;;;5058996;28;20215;-83
2023/05/20 03:21:16;;;;;;;2.03;1.75;;;;;;;;;;5059840;28;20202;-81
2023/05/20 03:23:45;;;;;;;2.90;2.70;;;;;;;;;;5057521;28;20213;-82
2023/05/20 03:26:13;;;;;;;2.47;2.15;;;;;;;;;;5058641;28;20251;-83
2023/05/20 03:28:40;;;;;;;2.45;2.30;;;;;;;;;;5058188;28;20304;-81
2023/05/20 03:31:07;;;;;;;2.17;1.92;;;;;;;;;;5058163;28;20316;-82
2023/05/20 03:33:35;;;;;;;1.58;1.48;;;;;;;;;;5058353;28;20240;-83
2023/05/20 03:36:03;;;;;;;1.63;1.52;;;;;;;;;;5058268;28;20281;-83
2023/05/20 03:38:31;;;;;;;2.30;2.10;;;;;;;;;;5057854;28;20208;-81
2023/05/20 03:41:00;;;;;;;1.88;1.48;;;;;;;;;;5058412;28;20224;-82
2023/05/20 03:43:27;;;;;;;1.80;1.70;;;;;;;;;;5057205;28;20292;-82
2023/05/20 03:45:55;;;;;;;2.20;2.00;;;;;;;;;;5056986;28;20206;-81
2023/05/20 03:48:22;;;;;;;1.95;1.85;;;;;;;;;;5056625;28;20244;-81
2023/05/20 03:50:50;;;;;;;1.95;1.80;;;;;;;;;;5058125;28;20615;-81
2023/05/20 03:53:19;;;;;;;1.80;1.70;;;;;;;;;;5056804;28;20201;-81
2023/05/20 03:55:47;;;;;;;3.00;1.98;;;;;;;;;;5055749;28;20639;-82
2023/05/20 03:58:16;;;;;;;2.83;2.63;;;;;;;;;;5055484;28;20213;-81
2023/05/20 04:00:43;;;;;;;2.50;2.30;;;;;;;;;;5056502;28;20221;-80
2023/05/20 04:03:11;;;;;;;2.20;2.00;;;;;;;;;;5054570;28;20211;-81
2023/05/20 04:05:38;;;;;;;2.67;2.28;;;;;;;;;;5055116;28;20667;-82
2023/05/20 04:08:06;;;;;;;2.60;2.35;;;;;;;;;;5056031;28;20297;-83
2023/05/20 04:10:34;;;;;;;2.78;2.58;;;;;;;;;;5056123;28;20268;-81
2023/05/20 04:13:01;;;;;;;2.15;2.00;;;;;;;;;;5056801;28;20209;-80
2023/05/20 04:15:30;;;;;;;2.40;2.30;;;;;;;;;;5055227;28;20292;-82
2023/05/20 04:18:00;;;;;;;3.13;2.42;;;;;;;;;;5055654;28;20296;-82
2023/05/20 04:20:27;;;;;;;2.67;2.10;;;;;;;;;;5057313;28;20225;-81
2023/05/20 04:22:55;;;;;;;2.20;2.00;;;;;;;;;;5056806;28;20528;-82
2023/05/20 04:25:23;;;;;;;2.85;2.35;;;;;;;;;;5058314;28;20296;-83
2023/05/20 04:27:52;;;;;;;2.28;2.08;;;;;;;;;;5056926;28;20210;-82
2023/05/20 04:30:20;;;;;;;2.10;2.00;;;;;;;;;;5057411;28;20283;-82
2023/05/20 04:32:50;;;;;;;2.53;2.33;;;;;;;;;;5057692;28;20225;-82
2023/05/20 04:35:18;;;;;;;2.05;1.92;;;;;;;;;;5057253;28;20202;-83
2023/05/20 04:37:47;;;;;;;1.80;1.70;;;;;;;;;;5056021;28;20202;-82
2023/05/20 04:40:15;;;;;;;2.30;2.10;;;;;;;;;;5056965;28;20226;-82
2023/05/20 04:42:43;;;;;;;2.70;2.50;;;;;;;;;;5057474;28;20201;-81
2023/05/20 04:45:12;;;;;;;1.92;1.83;;;;;;;;;;5056825;28;20229;-81
2023/05/20 04:47:40;;;;;;;2.30;1.70;;;;;;;;;;5056412;28;20202;-82
2023/05/20 04:50:12;;;;;;;3.83;2.15;;;;;;;;;;5055947;28;20226;-82
2023/05/20 04:52:40;;;;;;;3.25;2.95;;;;;;;;;;5057193;28;20221;-82
2023/05/20 04:55:10;;;;;;;2.20;2.00;;;;;;;;;;5055535;28;20198;-83
2023/05/20 04:57:40;;;;;;;2.40;2.20;;;;;;;;;;5057414;28;20289;-82
2023/05/20 05:00:09;;;;;;;3.05;2.40;;;;;;;;;;5056077;28;20300;-82
2023/05/20 05:02:37;;;;;;;2.85;2.45;;;;;;;;;;5055335;28;20327;-81
2023/05/20 05:05:05;;;;;;;4.18;2.45;;;;;;;;;;5055789;28;20205;-81
2023/05/20 05:07:34;;;;;;;3.08;2.58;;;;;;;;;;5055315;28;20740;-82
2023/05/20 05:10:01;;;;;;;3.75;3.00;;;;;;;;;;5055427;28;20308;-82
2023/05/20 05:12:29;;;;;;;2.60;2.40;;;;;;;;;;5066768;22;20252;-81
2023/05/20 05:14:57;;;;;;;2.28;2.15;;;;;;;;;;5052514;28;20312;-83
2023/05/20 05:17:25;;;;;;;2.70;2.45;;;;;;;;;;5054412;28;20957;-82
2023/05/20 05:19:52;;;;;;;2.90;2.70;;;;;;;;;;5054445;28;20201;-82
2023/05/20 05:22:20;;;;;;;3.38;2.90;;;;;;;;;;5054565;28;20193;-83
2023/05/20 05:24:48;;;;;;;3.40;2.80;;;;;;;;;;5054095;28;20240;-82
2023/05/20 05:27:16;;;;;;;3.45;3.15;;;;;;;;;;5053095;28;20284;-83
2023/05/20 05:29:43;;;;;;;5.45;3.30;;;;;;;;;;5053797;28;20626;-81
2023/05/20 05:32:11;;;;;;;3.53;3.25;;;;;;;;;;5053346;28;20287;-82
2023/05/20 05:34:38;;;;;;;3.25;2.95;;;;;;;;;;5053421;28;20210;-82
2023/05/20 05:37:06;;;;;;;3.75;3.45;;;;;;;;;;5054174;28;20203;-80
2023/05/20 05:39:36;;;;;;;2.67;2.47;;;;;;;;;;5053922;28;20207;-80
2023/05/20 05:42:05;;;;;;;3.78;3.20;;;;;;;;;;5054468;28;20182;-81
2023/05/20 05:44:33;;;;;;;3.65;2.95;;;;;;;;;;5053528;28;20670;-81
2023/05/20 05:47:00;;;;;;;3.55;3.25;;;;;;;;;;5053808;28;20292;-81
2023/05/20 05:49:28;;;;;;;3.40;2.97;;;;;;;;;;5052229;28;20206;-80
2023/05/20 05:51:55;;;;;;;2.78;2.58;;;;;;;;;;5052909;28;20308;-80
2023/05/20 05:54:23;;;;;;;3.60;3.30;;;;;;;;;;5053707;28;20194;-81
2023/05/20 05:56:52;;;;;;;2.83;2.58;;;;;;;;;;5053522;28;20276;-81
2023/05/20 05:59:21;;;;;;;2.60;2.33;;;;;;;;;;5053669;28;20679;-83
2023/05/20 06:01:48;;;;;;;2.50;2.30;;;;;;;;;;5053568;28;20244;-81
2023/05/20 06:04:16;;;;;;;2.60;2.40;;;;;;;;;;5055054;28;20229;-83
2023/05/20 06:06:43;;;;;;;2.83;2.53;;;;;;;;;;5053496;28;20280;-81
2023/05/20 06:09:11;;;;;;;2.90;2.70;;;;;;;;;;5069322;22;20253;-81
2023/05/20 06:11:41;;;;;;;3.13;2.90;;;;;;;;;;5053380;28;20208;-77
2023/05/20 06:14:08;;;;;;;3.05;2.85;;;;;;;;;;5040843;28;20198;-78
2023/05/20 06:16:37;;;;;;;3.50;3.20;;;;;;;;;;5034809;28;20212;-79
2023/05/20 06:19:05;;;;;;;4.35;3.95;;;;;;;;;;5025502;28;20694;-78
2023/05/20 06:21:32;;;;;;;4.07;3.78;;;;;;;;;;5032456;28;20202;-78
2023/05/20 06:24:00;;;;;;;4.32;4.03;;;;;;;;;;5068601;22;20736;-82
2023/05/20 06:26:27;;;;;;;3.92;3.50;;;;;;;;;;5052712;28;20705;-82
2023/05/20 06:28:55;;;;;;;3.25;2.95;;;;;;;;;;5053499;28;20281;-82
2023/05/20 06:31:22;;;;;;;3.90;3.58;;;;;;;;;;5053963;28;20197;-82
2023/05/20 06:33:51;;;;;;;3.10;2.80;;;;;;;;;;5050041;28;20251;-82
2023/05/20 06:36:18;;;;;;;2.80;2.60;;;;;;;;;;5052034;28;20952;-81
2023/05/20 06:38:46;;;;;;;2.90;2.70;;;;;;;;;;5056280;28;20205;-81
2023/05/20 06:41:13;;;;;;;4.03;3.55;;;;;;;;;;5056158;28;20212;-82
2023/05/20 06:43:41;;;;;;;3.20;2.90;;;;;;;;;;5055786;28;20225;-82
2023/05/20 06:46:08;;;;;;;3.30;3.00;;;;;;;;;;5056367;28;20206;-82
2023/05/20 06:48:35;;;;;;;2.53;2.33;;;;;;;;;;5056666;28;20214;-82
2023/05/20 06:51:05;;;;;;;4.43;3.50;;;;;;;;;;5057532;28;20729;-82
2023/05/20 06:53:33;;;;;;;4.47;4.07;;;;;;;;;;5057358;28;20232;-81
2023/05/20 06:56:00;;;;;;;4.05;3.65;;;;;;;;;;5057944;28;20269;-81
2023/05/20 06:58:28;;;;;;;3.85;3.55;;;;;;;;;;5057253;28;20287;-81
2023/05/20 07:00:55;;;;;;;4.45;3.55;;;;;;;;;;5057799;28;20215;-82
2023/05/20 07:03:24;;;;;;;4.75;3.00;;;;;;;;;;5056801;28;20217;-82
2023/05/20 07:05:52;;;;;;;3.92;3.53;;;;;;;;;;5056313;28;20926;-82
2023/05/20 07:08:20;;;;;;;3.47;3.17;;;;;;;;;;5056707;28;20205;-81
2023/05/20 07:10:48;;;;;;;4.10;3.80;;;;;;;;;;5056275;28;20725;-82
2023/05/20 07:13:15;;;;;;;4.15;3.72;;;;;;;;;;5055906;28;20760;-81
2023/05/20 07:15:45;;;;;;;4.35;3.72;;;;;;;;;;5056436;28;20202;-83
2023/05/20 07:18:13;;;;;;;3.38;3.08;;;;;;;;;;5056012;28;20661;-83
2023/05/20 07:20:40;;;;;;;3.90;3.47;;;;;;;;;;5055790;28;20201;-82
2023/05/20 07:23:08;;;;;;;3.95;3.58;;;;;;;;;;5055528;28;20321;-81
2023/05/20 07:25:37;;;;;;;4.18;3.78;;;;;;;;;;5055320;28;20670;-81
2023/05/20 07:28:04;;;;;;;3.58;2.67;;;;;;;;;;5055868;28;20313;-80
2023/05/20 07:30:32;;;;;;;4.00;3.60;;;;;;;;;;5055234;28;20617;-81
2023/05/20 07:32:59;;;;;;;3.20;2.90;;;;;;;;;;5055122;28;20312;-81
2023/05/20 07:35:27;;;;;;;3.00;2.65;;;;;;;;;;5054905;28;20236;-81
2023/05/20 07:37:54;;;;;;;3.70;2.83;;;;;;;;;;5054715;28;20197;-81
2023/05/20 07:40:22;;;;;;;5.90;4.30;;;;;;;;;;5055152;28;20738;-84
2023/05/20 07:42:51;;;;;;;3.95;3.10;;;;;;;;;;5054993;28;20304;-82
2023/05/20 07:45:18;;;;;;;3.00;2.75;;;;;;;;;;5054358;28;20766;-82
2023/05/20 07:47:46;;;;;;;4.25;3.80;;;;;;;;;;5053447;28;20205;-82
2023/05/20 07:50:13;;;;;;;4.65;4.25;;;;;;;;;;5053739;28;20305;-82
2023/05/20 07:52:41;;;;;;;4.10;3.72;;;;;;;;;;5054196;28;20208;-82
2023/05/20 07:55:09;;;;;;;3.55;3.25;;;;;;;;;;5054416;28;20570;-82
2023/05/20 07:57:36;;;;;;;3.75;3.42;;;;;;;;;;5053996;28;20293;-82
2023/05/20 08:00:07;;;;;;;4.57;4.18;;;;;;;;;;5054081;28;20300;-82
2023/05/20 08:02:34;;;;;;;3.53;3.10;;;;;;;;;;5054935;28;20293;-81
2023/05/20 08:05:01;;;;;;;4.13;3.72;;;;;;;;;;5054758;28;20296;-81
2023/05/20 08:07:29;;;;;;;3.63;3.33;;;;;;;;;;5054069;28;20197;-82
2023/05/20 08:09:56;;;;;;;4.88;4.38;;;;;;;;;;5054254;28;20198;-81
2023/05/20 08:12:24;;;;;;;5.07;4.57;;;;;;;;;;5054562;28;20296;-81
2023/05/20 08:14:51;;;;;;;4.93;4.43;;;;;;;;;;5053841;28;20260;-83
2023/05/20 08:17:20;;;;;;;4.85;3.60;;;;;;;;;;5054069;28;20289;-83
2023/05/20 08:19:48;;;;;;;3.67;3.38;;;;;;;;;;5054116;28;20206;-82
2023/05/20 08:22:15;;;;;;;4.18;3.72;;;;;;;;;;5054059;28;20439;-81
2023/05/20 08:24:43;;;;;;;4.88;4.47;;;;;;;;;;5053929;28;20364;-81
2023/05/20 08:27:10;;;;;;;4.53;4.13;;;;;;;;;;5053700;28;20297;-81
2023/05/20 08:29:38;;;;;;;5.30;4.28;;;;;;;;;;5053573;28;20207;-81
2023/05/20 08:32:06;;;;;;;6.00;4.25;;;;;;;;;;5053674;28;20201;-82
2023/05/20 08:34:35;;;;;;;4.38;3.38;;;;;;;;;;5054372;28;20265;-81
2023/05/20 08:37:03;;;;;;;3.72;3.42;;;;;;;;;;5054619;28;20201;-81
2023/05/20 08:39:30;;;;;;;4.95;3.75;;;;;;;;;;5055105;28;20214;-81
2023/05/20 08:41:58;;;;;;;4.55;4.05;;;;;;;;;;5054560;28;20280;-82
2023/05/20 08:44:27;;;;;;;3.88;3.50;;;;;;;;;;5055422;28;20316;-82
2023/05/20 08:46:55;;;;;;;5.03;4.63;;;;;;;;;;5055499;28;20208;-81
2023/05/20 08:49:22;;;;;;;4.72;4.32;;;;;;;;;;5054312;28;20662;-81
2023/05/20 08:51:51;;;;;;;6.28;5.68;;;;;;;;;;5054458;28;20808;-81
2023/05/20 08:54:19;;;;;;;5.20;4.22;;;;;;;;;;5055909;28;20230;-82
2023/05/20 08:56:47;;;;;;;3.67;3.38;;;;;;;;;;5055912;28;20205;-81
2023/05/20 08:59:14;;;;;;;4.50;4.10;;;;;;;;;;5054863;28;20233;-82
2023/05/20 09:01:43;;;;;;;3.60;3.30;;;;;;;;;;5053630;28;20292;-82
2023/05/20 09:04:10;;;;;;;4.38;3.92;;;;;;;;;;5054379;28;20218;-81
2023/05/20 09:06:44;;;;;;;4.22;3.83;;;;;;;;;;5055728;28;20588;-81
2023/05/20 09:09:14;;;;;;;4.05;3.67;;;;;;;;;;5054422;28;20211;-81
2023/05/20 09:11:42;;;;;;;3.53;3.22;;;;;;;;;;5054651;28;20205;-81
2023/05/20 09:14:10;;;;;;;4.47;4.05;;;;;;;;;;5054313;28;20320;-82
2023/05/20 09:16:39;;;;;;;3.40;2.78;;;;;;;;;;5054328;28;20292;-81
2023/05/20 09:19:08;;;;;;;5.75;4.80;;;;;;;;;;5034511;28;20210;-80
2023/05/20 09:21:37;;;;;;;3.97;3.67;;;;;;;;;;5034100;28;20210;-81
2023/05/20 09:24:05;;;;;;;4.05;3.70;;;;;;;;;;5034807;28;20316;-80
2023/05/20 09:26:34;;;;;;;4.03;3.67;;;;;;;;;;5054170;28;20290;-81
2023/05/20 09:29:02;;;;;;;3.25;2.95;;;;;;;;;;5054106;28;20206;-81
2023/05/20 09:31:32;;;;;;;3.55;3.25;;;;;;;;;;5054231;28;20198;-81
2023/05/20 09:34:01;;;;;;;3.58;3.20;;;;;;;;;;5055015;28;20232;-81
2023/05/20 09:36:30;;;;;;;3.22;2.92;;;;;;;;;;5054385;28;20228;-82
2023/05/20 09:39:04;;;;;;;4.00;3.67;;;;;;;;;;5054210;28;20193;-81
2023/05/20 09:41:38;;;;;;;3.30;3.00;;;;;;;;;;5053698;28;20236;-81
2023/05/20 09:44:06;;;;;;;4.72;3.92;;;;;;;;;;5053463;28;20574;-80
2023/05/20 09:46:34;;;;;;;3.67;3.38;;;;;;;;;;5053160;28;20202;-80
2023/05/20 09:49:02;;;;;;;4.35;4.00;;;;;;;;;;5052825;28;20214;-82
2023/05/20 09:51:30;;;;;;;3.40;3.10;;;;;;;;;;5053370;28;20263;-80
2023/05/20 09:53:58;;;;;;;2.97;2.78;;;;;;;;;;5052908;28;20323;-81
2023/05/20 09:56:26;;;;;;;3.80;3.50;;;;;;;;;;5033522;28;20653;-80
2023/05/20 09:58:57;;;;;;;4.13;3.83;;;;;;;;;;5033171;28;20205;-79
2023/05/20 10:01:24;;;;;;;4.13;3.20;;;;;;;;;;5033340;28;20217;-80
2023/05/20 10:03:53;;;;;;;3.50;3.20;;;;;;;;;;5033188;28;20222;-80
2023/05/20 10:06:47;;;;;;;6.47;4.72;;;;;;;;;;5032742;28;20233;-80
2023/05/20 10:09:37;;;;;;;3.85;3.55;;;;;;;;;;5033163;28;20202;-81
2023/05/20 10:12:12;;;;;;;2.60;2.40;;;;;;;;;;5032971;28;20203;-81
2023/05/20 10:14:49;;;;;;;3.30;3.10;;;;;;;;;;5033619;28;20230;-81
2023/05/20 10:17:22;;;;;;;3.63;3.30;;;;;;;;;;5038521;28;20209;-81
2023/05/20 10:19:50;;;;;;;3.72;3.42;;;;;;;;;;5052869;28;20197;-81
2023/05/20 10:22:28;;;;;;;5.22;4.45;;;;;;;;;;5052948;28;20268;-81
2023/05/20 10:25:00;;;;;;;4.20;3.80;;;;;;;;;;5053074;28;20198;-81
2023/05/20 10:27:27;;;;;;;3.47;3.10;;;;;;;;;;5053014;28;20208;-82
2023/05/20 10:29:57;;;;;;;3.65;3.35;;;;;;;;;;5052611;28;20643;-80
2023/05/20 10:32:26;;;;;;;4.88;4.35;;;;;;;;;;5053318;28;20197;-81
2023/05/20 10:34:58;;;;;;;4.35;3.95;;;;;;;;;;5052793;28;20225;-81
2023/05/20 10:37:27;;;;;;;4.50;4.10;;;;;;;;;;5052615;28;20202;-80
2023/05/20 10:40:07;;;;;;;3.38;3.08;;;;;;;;;;5052640;28;20631;-82
2023/05/20 10:42:35;;;;;;;5.78;4.45;;;;;;;;;;5053190;28;20201;-80
2023/05/20 10:45:05;;;;;;;5.38;4.88;;;;;;;;;;5053052;28;20204;-81
2023/05/20 10:47:33;;;;;;;3.90;3.50;;;;;;;;;;5053957;28;20206;-81
2023/05/20 10:50:03;;;;;;;3.63;3.33;;;;;;;;;;5053593;28;20197;-80
2023/05/20 10:52:34;;;;;;;6.32;5.05;;;;;;;;;;5053543;28;20700;-81
2023/05/20 10:55:02;;;;;;;4.30;4.00;;;;;;;;;;5052543;28;20221;-82
2023/05/20 10:57:30;;;;;;;4.40;4.00;;;;;;;;;;5053040;28;20213;-81
2023/05/20 10:59:59;;;;;;;3.03;2.63;;;;;;;;;;5052537;28;20193;-81
2023/05/20 11:02:30;;;;;;;3.85;3.55;;;;;;;;;;5052835;28;20213;-81
2023/05/20 11:04:57;;;;;;;3.70;3.40;;;;;;;;;;5053091;28;20201;-82
2023/05/20 11:07:27;;;;;;;3.72;3.42;;;;;;;;;;5056564;28;20624;-81
2023/05/20 11:09:55;;;;;;;3.95;3.65;;;;;;;;;;5054647;28;20696;-81
2023/05/20 11:12:23;;;;;;;5.20;4.72;;;;;;;;;;5054502;28;20206;-81
2023/05/20 11:14:51;;;;;;;5.90;3.92;;;;;;;;;;5053096;28;20225;-82
2023/05/20 11:17:19;;;;;;;4.78;4.38;;;;;;;;;;5054090;28;20202;-81
2023/05/20 11:19:48;;;;;;;3.50;3.20;;;;;;;;;;5053422;28;20644;-81
2023/05/20 11:22:16;;;;;;;4.03;3.50;;;;;;;;;;5054002;28;20206;-81
2023/05/20 11:24:43;;;;;;;4.10;3.78;;;;;;;;;;5054954;28;20673;-83
2023/05/20 11:27:11;;;;;;;5.18;4.55;;;;;;;;;;5057803;28;20647;-80
2023/05/20 11:29:39;;;;;;;4.05;3.75;;;;;;;;;;5056607;28;20201;-80
2023/05/20 11:32:08;;;;;;;3.72;3.42;;;;;;;;;;5056844;28;20296;-80
2023/05/20 11:34:37;;;;;;;4.38;3.78;;;;;;;;;;5056209;28;20708;-84
2023/05/20 11:37:09;;;;;;;3.40;3.10;;;;;;;;;;5056647;28;20680;-83
2023/05/20 11:39:38;;;;;;;4.15;3.75;;;;;;;;;;5056138;28;20733;-81
2023/05/20 11:42:06;;;;;;;4.88;4.47;;;;;;;;;;5056703;28;20212;-82
2023/05/20 11:44:33;;;;;;;4.00;3.60;;;;;;;;;;5056761;28;20603;-82
2023/05/20 11:47:02;;;;;;;8.13;3.95;;;;;;;;;;5057042;28;20300;-83
2023/05/20 11:49:30;;;;;;;3.75;3.45;;;;;;;;;;5056767;28;20202;-83
2023/05/20 11:51:57;;;;;;;4.88;3.30;;;;;;;;;;5056043;28;20260;-83
2023/05/20 11:54:26;;;;;;;3.92;3.33;;;;;;;;;;5056253;28;20613;-81
2023/05/20 11:56:55;;;;;;;3.33;3.00;;;;;;;;;;5056718;28;20705;-82
2023/05/20 11:59:24;;;;;;;3.47;3.17;;;;;;;;;;5056765;28;20198;-83
2023/05/20 12:01:52;;;;;;;3.20;3.00;;;;;;;;;;5057018;28;20208;-83
2023/05/20 12:04:19;;;;;;;4.07;3.70;;;;;;;;;;5055438;28;20221;-83
2023/05/20 12:06:47;;;;;;;3.60;3.28;;;;;;;;;;5056000;28;20288;-82
2023/05/20 12:09:15;;;;;;;3.72;3.42;;;;;;;;;;5055414;28;20692;-82
2023/05/20 12:11:44;;;;;;;3.60;3.30;;;;;;;;;;5056289;28;20237;-81
2023/05/20 12:14:12;;;;;;;3.13;2.88;;;;;;;;;;5055227;28;20226;-81
2023/05/20 12:16:39;;;;;;;3.08;2.78;;;;;;;;;;5055284;28;20226;-83
2023/05/20 12:19:07;;;;;;;3.13;2.83;;;;;;;;;;5054969;28;20233;-81
2023/05/20 12:21:35;;;;;;;3.45;3.15;;;;;;;;;;5053594;28;20712;-83
2023/05/20 12:24:04;;;;;;;3.00;2.80;;;;;;;;;;5070124;22;20234;-79
2023/05/20 12:26:32;;;;;;;3.50;3.20;;;;;;;;;;5036139;28;20279;-79
2023/05/20 12:29:00;;;;;;;4.00;3.58;;;;;;;;;;5038359;28;20608;-79
2023/05/20 12:31:28;;;;;;;3.92;3.53;;;;;;;;;;5038386;28;20293;-79
2023/05/20 12:33:55;;;;;;;4.30;3.90;;;;;;;;;;5039784;28;20249;-79
2023/05/20 12:36:23;;;;;;;4.63;3.88;;;;;;;;;;5043115;28;20233;-80
2023/05/20 12:38:50;;;;;;;4.47;3.83;;;;;;;;;;5057423;28;20737;-78
2023/05/20 12:41:17;;;;;;;4.55;3.90;;;;;;;;;;5056348;28;20204;-80
2023/05/20 12:43:45;;;;;;;3.40;2.92;;;;;;;;;;5055355;28;20232;-80
2023/05/20 12:46:14;;;;;;;3.70;3.40;;;;;;;;;;5057353;28;20670;-79
2023/05/20 12:48:41;;;;;;;4.18;3.75;;;;;;;;;;5057443;28;20208;-78
2023/05/20 12:51:08;;;;;;;4.43;4.03;;;;;;;;;;5055954;28;20288;-80
2023/05/20 12:53:36;;;;;;;5.63;3.80;;;;;;;;;;5055510;28;20228;-79
2023/05/20 12:56:04;;;;;;;4.60;4.13;;;;;;;;;;5037926;28;20228;-79
2023/05/20 12:58:32;;;;;;;4.75;4.35;;;;;;;;;;5034592;28;20206;-80
2023/05/20 13:00:59;;;;;;;5.93;4.05;;;;;;;;;;5034917;28;20289;-79
2023/05/20 13:03:28;;;;;;;4.95;4.47;;;;;;;;;;5036627;28;20213;-79
2023/05/20 13:05:55;;;;;;;4.15;3.55;;;;;;;;;;5035037;28;20297;-79
2023/05/20 13:08:23;;;;;;;3.45;3.20;;;;;;;;;;5036274;28;20206;-80
2023/05/20 13:10:50;;;;;;;3.95;3.55;;;;;;;;;;5037497;28;20202;-80
2023/05/20 13:13:20;;;;;;;3.65;3.03;;;;;;;;;;5036436;28;20671;-80
2023/05/20 13:15:49;;;;;;;3.05;2.85;;;;;;;;;;5037300;28;20198;-79
2023/05/20 13:18:16;;;;;;;2.92;2.72;;;;;;;;;;5034956;28;20731;-80
2023/05/20 13:20:45;;;;;;;4.25;3.88;;;;;;;;;;5036328;28;20210;-80
2023/05/20 13:23:12;;;;;;;4.20;3.80;;;;;;;;;;5034087;28;20573;-80
2023/05/20 13:25:40;;;;;;;4.18;3.78;;;;;;;;;;5034668;28;20297;-80
2023/05/20 13:28:09;;;;;;;3.38;3.08;;;;;;;;;;5033706;28;20199;-80
2023/05/20 13:30:36;;;;;;;3.30;3.00;;;;;;;;;;5035883;28;20203;-79
2023/05/20 13:33:04;;;;;;;3.92;3.53;;;;;;;;;;5036221;28;20698;-79
2023/05/20 13:35:31;;;;;;;4.65;4.25;;;;;;;;;;5035657;28;20237;-80
2023/05/20 13:38:00;;;;;;;4.57;4.18;;;;;;;;;;5033742;28;20313;-80
2023/05/20 13:40:27;;;;;;;5.18;4.68;;;;;;;;;;5034619;28;20213;-78
2023/05/20 13:42:55;;;;;;;5.10;4.32;;;;;;;;;;5033905;28;20690;-79
2023/05/20 13:45:23;;;;;;;4.65;3.90;;;;;;;;;;5032896;28;20222;-79
2023/05/20 13:47:50;;;;;;;4.85;3.05;;;;;;;;;;5034865;28;20291;-78
2023/05/20 13:50:18;;;;;;;4.40;4.00;;;;;;;;;;5033008;28;20202;-80
2023/05/20 13:52:45;;;;;;;3.97;3.65;;;;;;;;;;5035569;28;20636;-80
2023/05/20 13:55:14;;;;;;;3.75;3.45;;;;;;;;;;5033695;28;20333;-80
2023/05/20 13:57:42;;;;;;;4.03;3.65;;;;;;;;;;5034960;28;20233;-80
2023/05/20 14:00:11;;;;;;;3.78;3.47;;;;;;;;;;5033760;28;20310;-80
2023/05/20 14:02:38;;;;;;;3.42;3.13;;;;;;;;;;5034332;28;20209;-80
2023/05/20 14:05:07;;;;;;;4.05;3.75;;;;;;;;;;5033935;28;20686;-80
2023/05/20 14:07:35;;;;;;;4.68;4.28;;;;;;;;;;5033579;28;20280;-78
2023/05/20 14:10:02;;;;;;;5.20;4.70;;;;;;;;;;5033212;28;20206;-79
2023/05/20 14:12:31;;;;;;;4.20;3.80;;;;;;;;;;5033623;28;20753;-79
2023/05/20 14:14:58;;;;;;;5.53;4.88;;;;;;;;;;5033359;28;20224;-79
2023/05/20 14:17:26;;;;;;;5.75;4.45;;;;;;;;;;5033813;28;20232;-80
2023/05/20 14:19:54;;;;;;;5.18;4.68;;;;;;;;;;5034857;28;20212;-79
2023/05/20 14:22:21;;;;;;;4.25;3.85;;;;;;;;;;5035848;28;20697;-79
2023/05/20 14:24:48;;;;;;;6.32;5.25;;;;;;;;;;5035175;28;20248;-80
2023/05/20 14:27:16;;;;;;;6.97;5.25;;;;;;;;;;5033560;28;20579;-79
2023/05/20 14:29:45;;;;;;;7.07;6.38;;;;;;;;;;5033508;28;20663;-79
2023/05/20 14:32:13;;;;;;;9.18;8.27;;;;;;;;;;5033537;28;20198;-79
2023/05/20 14:34:40;;;;;;;11.50;10.50;;;;;;;;;;5033670;28;20590;-79
2023/05/20 14:37:08;;;;;;;15.95;14.40;;;;;;;;;;5032979;28;20226;-79
2023/05/20 14:39:36;;;;;;;10.65;9.48;;;;;;;;;;5033143;28;20202;-79
2023/05/20 14:42:04;;;;;;;8.65;7.80;;;;;;;;;;5033032;28;20292;-78
2023/05/20 14:44:31;;;;;;;7.07;6.38;;;;;;;;;;5032783;28;20280;-78
2023/05/20 14:47:00;;;;;;;8.45;7.65;;;;;;;;;;5032551;28;20685;-79
2023/05/20 14:49:28;;;;;;;5.90;5.40;;;;;;;;;;5033483;28;20293;-80